logo
Rechercher aéroport 
image banner adimage banner adimage banner ad
image banner ad

CN62 - Cs Ranch

Situé à Colusa, United States

ICAO - CN62, IATA -

Données fournies par Airmate  

Information générale

Coordonnées: N39°14'30" W121°54'34"
Élévation : 59 feet MSL.
Variation magnétique : 15° East
Voir autres Aéroports à California

Données opérationnelles

Special qualification required
Heure actuelle UTC:
Heure actuelle locale:
Météo à : KMYV - Yuba County ( 33 km )
METAR: KMYV 281253Z AUTO 23005KT 10SM CLR 13/11 A2996 RMK AO2 SLP148 T01330111
Voir NOTAMs / SUP AIP / TFR affectant cet aéroport [VIEW]
Fréquences de communication: [VIEW]

Pistes:

Coordonnées de l'aéroport

Adresse: Colusa United States

Vue satellite de CN62